sensor_id;sensor_type;location;lat;lon;timestamp;pressure;altitude;pressure_sealevel;temperature;humidity
44992;BME280;56865;51.618;7.406;2023-06-04T00:01:34;101367.69;;;27.50;42.98
44992;BME280;56865;51.618;7.406;2023-06-04T00:04:04;101359.25;;;27.40;43.15
44992;BME280;56865;51.618;7.406;2023-06-04T00:06:34;101356.78;;;27.36;43.34
44992;BME280;56865;51.618;7.406;2023-06-04T00:09:08;101356.81;;;27.34;43.31
44992;BME280;56865;51.618;7.406;2023-06-04T00:11:38;101356.91;;;27.31;43.58
44992;BME280;56865;51.618;7.406;2023-06-04T00:14:09;101362.22;;;27.28;42.19
44992;BME280;56865;51.618;7.406;2023-06-04T00:16:39;101345.91;;;27.48;43.84
44992;BME280;56865;51.618;7.406;2023-06-04T00:19:09;101345.72;;;27.54;43.83
44992;BME280;56865;51.618;7.406;2023-06-04T00:21:40;101344.59;;;27.62;43.33
44992;BME280;56865;51.618;7.406;2023-06-04T00:24:12;101349.19;;;27.55;43.90
44992;BME280;56865;51.618;7.406;2023-06-04T00:26:43;101343.53;;;27.40;42.60
44992;BME280;56865;51.618;7.406;2023-06-04T00:29:14;101348.66;;;27.45;44.53
44992;BME280;56865;51.618;7.406;2023-06-04T00:31:44;101339.06;;;27.44;43.84
44992;BME280;56865;51.618;7.406;2023-06-04T00:34:14;101345.72;;;27.26;44.00
44992;BME280;56865;51.618;7.406;2023-06-04T00:36:44;101341.97;;;27.35;44.74
44992;BME280;56865;51.618;7.406;2023-06-04T00:39:17;101346.63;;;27.25;44.02
44992;BME280;56865;51.618;7.406;2023-06-04T00:41:47;101351.53;;;27.36;44.12
44992;BME280;56865;51.618;7.406;2023-06-04T00:44:17;101341.81;;;27.39;45.18
44992;BME280;56865;51.618;7.406;2023-06-04T00:46:48;101350.09;;;27.25;44.76
44992;BME280;56865;51.618;7.406;2023-06-04T00:49:20;101342.28;;;27.24;44.38
44992;BME280;56865;51.618;7.406;2023-06-04T00:51:50;101344.09;;;27.22;44.93
44992;BME280;56865;51.618;7.406;2023-06-04T00:54:24;101346.88;;;27.17;44.91
44992;BME280;56865;51.618;7.406;2023-06-04T00:56:55;101343.75;;;27.33;45.65
44992;BME280;56865;51.618;7.406;2023-06-04T00:59:26;101333.84;;;27.16;45.95
44992;BME280;56865;51.618;7.406;2023-06-04T01:02:00;101339.09;;;27.16;44.90
44992;BME280;56865;51.618;7.406;2023-06-04T01:04:34;101343.25;;;27.21;46.03
44992;BME280;56865;51.618;7.406;2023-06-04T01:07:07;101339.09;;;27.14;45.93
44992;BME280;56865;51.618;7.406;2023-06-04T01:09:44;101341.69;;;27.16;45.44
44992;BME280;56865;51.618;7.406;2023-06-04T01:12:14;101350.50;;;27.13;46.54
44992;BME280;56865;51.618;7.406;2023-06-04T01:14:44;101341.66;;;27.17;46.88
44992;BME280;56865;51.618;7.406;2023-06-04T01:17:18;101341.78;;;27.13;47.40
44992;BME280;56865;51.618;7.406;2023-06-04T01:20:02;101344.91;;;27.24;46.78
44992;BME280;56865;51.618;7.406;2023-06-04T01:22:38;101345.16;;;27.16;46.78
44992;BME280;56865;51.618;7.406;2023-06-04T01:25:13;101348.25;;;27.01;47.10
44992;BME280;56865;51.618;7.406;2023-06-04T01:27:49;101352.34;;;27.09;47.80
44992;BME280;56865;51.618;7.406;2023-06-04T01:30:25;101345.34;;;27.10;47.17
44992;BME280;56865;51.618;7.406;2023-06-04T01:32:55;101343.63;;;27.09;47.54
44992;BME280;56865;51.618;7.406;2023-06-04T01:35:26;101345.91;;;26.91;47.75
44992;BME280;56865;51.618;7.406;2023-06-04T01:37:58;101342.78;;;27.08;48.03
44992;BME280;56865;51.618;7.406;2023-06-04T01:40:30;101348.22;;;27.02;48.45
44992;BME280;56865;51.618;7.406;2023-06-04T01:43:00;101351.78;;;27.00;48.40
44992;BME280;56865;51.618;7.406;2023-06-04T01:45:30;101344.88;;;26.97;48.06
44992;BME280;56865;51.618;7.406;2023-06-04T01:48:01;101347.69;;;26.91;48.71
44992;BME280;56865;51.618;7.406;2023-06-04T01:50:32;101344.88;;;26.97;47.94
44992;BME280;56865;51.618;7.406;2023-06-04T01:53:02;101332.88;;;26.90;49.20
44992;BME280;56865;51.618;7.406;2023-06-04T01:55:35;101330.72;;;27.03;49.41
44992;BME280;56865;51.618;7.406;2023-06-04T01:58:06;101335.97;;;27.03;49.34
44992;BME280;56865;51.618;7.406;2023-06-04T02:00:36;101339.69;;;26.96;49.91
44992;BME280;56865;51.618;7.406;2023-06-04T02:03:06;101335.25;;;26.98;49.39
44992;BME280;56865;51.618;7.406;2023-06-04T02:05:37;101336.16;;;26.67;49.98
44992;BME280;56865;51.618;7.406;2023-06-04T02:08:07;101346.19;;;26.82;49.38
44992;BME280;56865;51.618;7.406;2023-06-04T02:10:40;101342.94;;;26.74;49.67
44992;BME280;56865;51.618;7.406;2023-06-04T02:13:10;101334.13;;;26.78;49.69
44992;BME280;56865;51.618;7.406;2023-06-04T02:15:40;101349.38;;;26.62;49.07
44992;BME280;56865;51.618;7.406;2023-06-04T02:18:12;101346.44;;;26.74;49.06
44992;BME280;56865;51.618;7.406;2023-06-04T02:20:45;101343.00;;;26.71;49.67
44992;BME280;56865;51.618;7.406;2023-06-04T02:23:15;101345.25;;;26.85;49.23
44992;BME280;56865;51.618;7.406;2023-06-04T02:25:49;101344.03;;;26.65;49.71
44992;BME280;56865;51.618;7.406;2023-06-04T02:28:20;101343.41;;;26.57;49.90
44992;BME280;56865;51.618;7.406;2023-06-04T02:30:51;101348.41;;;26.65;49.45
44992;BME280;56865;51.618;7.406;2023-06-04T02:33:21;101345.81;;;26.65;49.88
44992;BME280;56865;51.618;7.406;2023-06-04T02:35:51;101343.72;;;26.77;49.79
44992;BME280;56865;51.618;7.406;2023-06-04T02:38:22;101347.06;;;26.51;49.92
44992;BME280;56865;51.618;7.406;2023-06-04T02:40:55;101346.44;;;26.43;50.12
44992;BME280;56865;51.618;7.406;2023-06-04T02:43:25;101349.66;;;26.53;50.08
44992;BME280;56865;51.618;7.406;2023-06-04T02:45:55;101351.72;;;26.40;49.74
44992;BME280;56865;51.618;7.406;2023-06-04T02:48:25;101353.31;;;26.46;50.13
44992;BME280;56865;51.618;7.406;2023-06-04T02:50:56;101352.44;;;26.47;49.78
44992;BME280;56865;51.618;7.406;2023-06-04T02:53:26;101347.22;;;26.45;50.10
44992;BME280;56865;51.618;7.406;2023-06-04T02:55:58;101351.59;;;26.44;49.96
44992;BME280;56865;51.618;7.406;2023-06-04T02:58:28;101353.38;;;26.44;50.58
44992;BME280;56865;51.618;7.406;2023-06-04T03:00:58;101351.00;;;26.35;50.61
44992;BME280;56865;51.618;7.406;2023-06-04T03:03:28;101359.50;;;26.43;49.95
44992;BME280;56865;51.618;7.406;2023-06-04T03:06:00;101354.50;;;26.34;50.60
44992;BME280;56865;51.618;7.406;2023-06-04T03:08:31;101349.66;;;26.20;50.75
44992;BME280;56865;51.618;7.406;2023-06-04T03:11:04;101357.34;;;26.26;50.99
44992;BME280;56865;51.618;7.406;2023-06-04T03:13:34;101359.09;;;26.25;51.21
44992;BME280;56865;51.618;7.406;2023-06-04T03:16:05;101360.94;;;26.22;50.94
44992;BME280;56865;51.618;7.406;2023-06-04T03:18:37;101362.81;;;26.17;50.75
44992;BME280;56865;51.618;7.406;2023-06-04T03:21:07;101356.59;;;26.21;51.19
44992;BME280;56865;51.618;7.406;2023-06-04T03:23:38;101359.88;;;26.29;51.05
44992;BME280;56865;51.618;7.406;2023-06-04T03:26:11;101351.59;;;26.13;51.26
44992;BME280;56865;51.618;7.406;2023-06-04T03:28:41;101349.50;;;26.26;51.37
44992;BME280;56865;51.618;7.406;2023-06-04T03:31:11;101359.84;;;26.31;51.00
44992;BME280;56865;51.618;7.406;2023-06-04T03:33:42;101360.69;;;26.31;51.24
44992;BME280;56865;51.618;7.406;2023-06-04T03:36:12;101347.94;;;26.20;51.68
44992;BME280;56865;51.618;7.406;2023-06-04T03:38:45;101352.59;;;26.09;51.65
44992;BME280;56865;51.618;7.406;2023-06-04T03:41:17;101352.44;;;26.14;52.52
44992;BME280;56865;51.618;7.406;2023-06-04T03:43:47;101354.03;;;26.19;52.29
44992;BME280;56865;51.618;7.406;2023-06-04T03:46:17;101356.81;;;26.13;52.27
44992;BME280;56865;51.618;7.406;2023-06-04T03:48:47;101357.50;;;26.20;52.00
44992;BME280;56865;51.618;7.406;2023-06-04T03:51:18;101355.75;;;26.20;52.16
44992;BME280;56865;51.618;7.406;2023-06-04T03:53:48;101359.19;;;26.22;52.12
44992;BME280;56865;51.618;7.406;2023-06-04T03:56:20;101357.06;;;26.37;52.16
44992;BME280;56865;51.618;7.406;2023-06-04T03:58:51;101363.50;;;26.23;52.42
44992;BME280;56865;51.618;7.406;2023-06-04T04:01:21;101357.59;;;26.17;52.82
44992;BME280;56865;51.618;7.406;2023-06-04T04:03:51;101361.19;;;26.13;52.96
44992;BME280;56865;51.618;7.406;2023-06-04T04:06:22;101360.00;;;26.24;53.28
44992;BME280;56865;51.618;7.406;2023-06-04T04:08:52;101358.06;;;26.33;53.36
44992;BME280;56865;51.618;7.406;2023-06-04T04:11:24;101363.19;;;26.36;53.76
44992;BME280;56865;51.618;7.406;2023-06-04T04:13:56;101362.84;;;26.48;53.81
44992;BME280;56865;51.618;7.406;2023-06-04T04:16:26;101367.63;;;26.64;53.69
44992;BME280;56865;51.618;7.406;2023-06-04T04:18:56;101369.97;;;26.74;53.10
44992;BME280;56865;51.618;7.406;2023-06-04T04:21:25;101362.50;;;26.60;53.29
44992;BME280;56865;51.618;7.406;2023-06-04T04:23:55;101364.00;;;26.68;51.80
44992;BME280;56865;51.618;7.406;2023-06-04T04:26:28;101363.88;;;26.74;51.90
44992;BME280;56865;51.618;7.406;2023-06-04T04:28:59;101374.84;;;26.87;50.27
44992;BME280;56865;51.618;7.406;2023-06-04T04:31:29;101360.47;;;27.00;50.94
44992;BME280;56865;51.618;7.406;2023-06-04T04:34:00;101366.22;;;27.13;52.34
44992;BME280;56865;51.618;7.406;2023-06-04T04:36:34;101365.84;;;27.24;52.38
44992;BME280;56865;51.618;7.406;2023-06-04T04:39:07;101363.00;;;27.32;52.88
44992;BME280;56865;51.618;7.406;2023-06-04T04:41:40;101354.91;;;27.41;51.74
44992;BME280;56865;51.618;7.406;2023-06-04T04:44:10;101353.53;;;27.28;51.88
44992;BME280;56865;51.618;7.406;2023-06-04T04:46:40;101358.56;;;27.34;50.46
44992;BME280;56865;51.618;7.406;2023-06-04T04:49:10;101361.38;;;27.28;49.68
44992;BME280;56865;51.618;7.406;2023-06-04T04:51:40;101361.88;;;27.40;50.83
44992;BME280;56865;51.618;7.406;2023-06-04T04:54:10;101366.13;;;27.45;49.72
44992;BME280;56865;51.618;7.406;2023-06-04T04:56:42;101371.06;;;27.54;50.58
44992;BME280;56865;51.618;7.406;2023-06-04T04:59:14;101368.13;;;27.63;50.74
44992;BME280;56865;51.618;7.406;2023-06-04T05:01:44;101377.13;;;27.56;49.10
44992;BME280;56865;51.618;7.406;2023-06-04T05:04:14;101380.72;;;27.79;50.68
44992;BME280;56865;51.618;7.406;2023-06-04T05:06:44;101366.66;;;27.81;50.65
44992;BME280;56865;51.618;7.406;2023-06-04T05:09:14;101373.84;;;28.01;50.28
44992;BME280;56865;51.618;7.406;2023-06-04T05:11:47;101376.56;;;28.25;51.57
44992;BME280;56865;51.618;7.406;2023-06-04T05:14:18;101364.13;;;28.30;49.57
44992;BME280;56865;51.618;7.406;2023-06-04T05:16:48;101371.53;;;28.43;47.98
44992;BME280;56865;51.618;7.406;2023-06-04T05:19:18;101378.66;;;28.63;47.63
44992;BME280;56865;51.618;7.406;2023-06-04T05:21:48;101377.47;;;28.24;47.42
44992;BME280;56865;51.618;7.406;2023-06-04T05:24:18;101374.16;;;28.43;47.84
44992;BME280;56865;51.618;7.406;2023-06-04T05:26:50;101379.13;;;28.98;47.43
44992;BME280;56865;51.618;7.406;2023-06-04T05:29:20;101374.88;;;29.17;47.75
44992;BME280;56865;51.618;7.406;2023-06-04T05:31:50;101390.56;;;29.63;48.71
44992;BME280;56865;51.618;7.406;2023-06-04T05:34:20;101386.88;;;29.47;45.96
44992;BME280;56865;51.618;7.406;2023-06-04T05:36:50;101380.81;;;29.88;48.88
44992;BME280;56865;51.618;7.406;2023-06-04T05:39:20;101386.34;;;29.81;46.30
44992;BME280;56865;51.618;7.406;2023-06-04T05:41:53;101378.28;;;30.07;46.15
44992;BME280;56865;51.618;7.406;2023-06-04T05:44:23;101389.56;;;30.29;45.32
44992;BME280;56865;51.618;7.406;2023-06-04T05:46:53;101391.91;;;30.56;48.00
44992;BME280;56865;51.618;7.406;2023-06-04T05:49:23;101397.09;;;30.58;45.83
44992;BME280;56865;51.618;7.406;2023-06-04T05:51:53;101391.63;;;30.82;46.85
44992;BME280;56865;51.618;7.406;2023-06-04T05:54:23;101397.69;;;30.84;48.87
44992;BME280;56865;51.618;7.406;2023-06-04T05:56:56;101386.31;;;30.83;48.04
44992;BME280;56865;51.618;7.406;2023-06-04T05:59:26;101385.00;;;30.73;47.99
44992;BME280;56865;51.618;7.406;2023-06-04T06:01:56;101386.41;;;30.42;45.68
44992;BME280;56865;51.618;7.406;2023-06-04T06:04:27;101394.53;;;30.75;45.90
44992;BME280;56865;51.618;7.406;2023-06-04T06:06:58;101396.56;;;30.89;46.30
44992;BME280;56865;51.618;7.406;2023-06-04T06:09:27;101399.88;;;31.31;48.64
44992;BME280;56865;51.618;7.406;2023-06-04T06:12:00;101401.28;;;31.38;46.06
44992;BME280;56865;51.618;7.406;2023-06-04T06:14:30;101409.19;;;31.75;45.34
44992;BME280;56865;51.618;7.406;2023-06-04T06:17:00;101406.66;;;31.54;43.81
44992;BME280;56865;51.618;7.406;2023-06-04T06:19:31;101414.84;;;32.20;43.32
44992;BME280;56865;51.618;7.406;2023-06-04T06:22:01;101411.47;;;32.16;42.87
44992;BME280;56865;51.618;7.406;2023-06-04T06:24:31;101412.81;;;32.25;41.13
44992;BME280;56865;51.618;7.406;2023-06-04T06:27:04;101413.28;;;32.67;43.74
44992;BME280;56865;51.618;7.406;2023-06-04T06:29:35;101413.28;;;32.83;41.25
44992;BME280;56865;51.618;7.406;2023-06-04T06:32:06;101412.00;;;32.74;40.21
44992;BME280;56865;51.618;7.406;2023-06-04T06:34:36;101413.72;;;32.91;44.58
44992;BME280;56865;51.618;7.406;2023-06-04T06:37:07;101406.72;;;33.22;44.89
44992;BME280;56865;51.618;7.406;2023-06-04T06:39:37;101412.88;;;33.38;42.89
44992;BME280;56865;51.618;7.406;2023-06-04T06:42:09;101417.41;;;33.36;45.75
44992;BME280;56865;51.618;7.406;2023-06-04T06:44:39;101423.50;;;33.53;39.15
44992;BME280;56865;51.618;7.406;2023-06-04T06:47:09;101420.81;;;33.85;39.02
44992;BME280;56865;51.618;7.406;2023-06-04T06:49:40;101426.94;;;33.69;37.69
44992;BME280;56865;51.618;7.406;2023-06-04T06:52:11;101435.28;;;33.94;38.62
44992;BME280;56865;51.618;7.406;2023-06-04T06:54:41;101431.41;;;33.85;40.92
44992;BME280;56865;51.618;7.406;2023-06-04T06:57:14;101428.75;;;33.69;41.01
44992;BME280;56865;51.618;7.406;2023-06-04T06:59:44;101430.84;;;33.78;39.22
44992;BME280;56865;51.618;7.406;2023-06-04T07:02:14;101431.91;;;33.60;42.01
44992;BME280;56865;51.618;7.406;2023-06-04T07:04:44;101431.69;;;33.00;42.03
44992;BME280;56865;51.618;7.406;2023-06-04T07:07:14;101431.28;;;33.24;43.67
44992;BME280;56865;51.618;7.406;2023-06-04T07:09:44;101434.94;;;33.05;44.29
44992;BME280;56865;51.618;7.406;2023-06-04T07:12:17;101432.13;;;32.93;36.32
44992;BME280;56865;51.618;7.406;2023-06-04T07:14:47;101439.88;;;33.12;41.57
44992;BME280;56865;51.618;7.406;2023-06-04T07:17:17;101430.97;;;33.30;42.59
44992;BME280;56865;51.618;7.406;2023-06-04T07:19:47;101441.31;;;33.65;37.47
44992;BME280;56865;51.618;7.406;2023-06-04T07:22:17;101440.47;;;33.65;38.78
44992;BME280;56865;51.618;7.406;2023-06-04T07:24:47;101437.84;;;33.79;39.01
44992;BME280;56865;51.618;7.406;2023-06-04T07:27:20;101437.59;;;33.53;40.45
44992;BME280;56865;51.618;7.406;2023-06-04T07:29:50;101441.69;;;33.27;42.23
44992;BME280;56865;51.618;7.406;2023-06-04T07:32:20;101439.66;;;33.32;38.40
44992;BME280;56865;51.618;7.406;2023-06-04T07:34:50;101434.88;;;33.69;41.15
44992;BME280;56865;51.618;7.406;2023-06-04T07:37:20;101430.72;;;33.65;39.98
44992;BME280;56865;51.618;7.406;2023-06-04T07:39:49;101434.91;;;34.00;39.76
44992;BME280;56865;51.618;7.406;2023-06-04T07:42:22;101433.34;;;33.35;42.53
44992;BME280;56865;51.618;7.406;2023-06-04T07:44:52;101435.53;;;33.27;36.69
44992;BME280;56865;51.618;7.406;2023-06-04T07:47:22;101435.31;;;33.78;38.83
44992;BME280;56865;51.618;7.406;2023-06-04T07:49:53;101436.84;;;33.82;38.94
44992;BME280;56865;51.618;7.406;2023-06-04T07:52:29;101437.25;;;33.28;41.35
44992;BME280;56865;51.618;7.406;2023-06-04T07:54:59;101441.28;;;33.35;43.20
44992;BME280;56865;51.618;7.406;2023-06-04T07:57:32;101437.03;;;33.32;44.26
44992;BME280;56865;51.618;7.406;2023-06-04T08:00:04;101443.81;;;33.20;41.44
44992;BME280;56865;51.618;7.406;2023-06-04T08:02:34;101438.78;;;33.32;42.34
44992;BME280;56865;51.618;7.406;2023-06-04T08:05:05;101442.78;;;32.91;40.48
44992;BME280;56865;51.618;7.406;2023-06-04T08:07:35;101439.91;;;33.44;43.31
44992;BME280;56865;51.618;7.406;2023-06-04T08:10:06;101452.22;;;33.59;36.41
44992;BME280;56865;51.618;7.406;2023-06-04T08:12:39;101446.91;;;34.06;40.67
44992;BME280;56865;51.618;7.406;2023-06-04T08:15:10;101443.34;;;34.07;39.23
44992;BME280;56865;51.618;7.406;2023-06-04T08:17:40;101442.13;;;33.66;42.03
44992;BME280;56865;51.618;7.406;2023-06-04T08:20:10;101447.91;;;33.89;40.43
44992;BME280;56865;51.618;7.406;2023-06-04T08:22:40;101442.56;;;33.74;36.71
44992;BME280;56865;51.618;7.406;2023-06-04T08:25:10;101450.38;;;34.51;37.30
44992;BME280;56865;51.618;7.406;2023-06-04T08:27:44;101443.53;;;34.18;40.60
44992;BME280;56865;51.618;7.406;2023-06-04T08:30:14;101442.25;;;33.95;41.24
44992;BME280;56865;51.618;7.406;2023-06-04T08:32:44;101439.75;;;34.08;40.32
44992;BME280;56865;51.618;7.406;2023-06-04T08:35:15;101447.19;;;34.01;40.80
44992;BME280;56865;51.618;7.406;2023-06-04T08:37:45;101448.19;;;33.84;40.59
44992;BME280;56865;51.618;7.406;2023-06-04T08:40:15;101453.38;;;34.30;39.40
44992;BME280;56865;51.618;7.406;2023-06-04T08:42:49;101454.72;;;34.38;35.82
44992;BME280;56865;51.618;7.406;2023-06-04T08:45:25;101446.94;;;34.20;36.08
44992;BME280;56865;51.618;7.406;2023-06-04T08:47:56;101455.50;;;34.69;37.33
44992;BME280;56865;51.618;7.406;2023-06-04T08:50:27;101452.06;;;34.38;36.50
44992;BME280;56865;51.618;7.406;2023-06-04T08:52:58;101459.00;;;34.55;37.92
44992;BME280;56865;51.618;7.406;2023-06-04T08:55:28;101453.78;;;34.67;38.16
44992;BME280;56865;51.618;7.406;2023-06-04T08:58:01;101451.31;;;34.79;38.44
44992;BME280;56865;51.618;7.406;2023-06-04T09:00:31;101455.69;;;34.51;38.83
44992;BME280;56865;51.618;7.406;2023-06-04T09:03:02;101445.47;;;34.59;38.07
44992;BME280;56865;51.618;7.406;2023-06-04T09:05:33;101443.56;;;34.76;38.18
44992;BME280;56865;51.618;7.406;2023-06-04T09:08:08;101445.66;;;34.71;38.60
44992;BME280;56865;51.618;7.406;2023-06-04T09:10:41;101452.19;;;34.50;38.96
44992;BME280;56865;51.618;7.406;2023-06-04T09:13:14;101435.69;;;34.31;40.33
44992;BME280;56865;51.618;7.406;2023-06-04T09:15:45;101445.38;;;34.46;39.06
44992;BME280;56865;51.618;7.406;2023-06-04T09:18:15;101446.22;;;34.61;37.97
44992;BME280;56865;51.618;7.406;2023-06-04T09:20:45;101450.97;;;34.11;35.93
44992;BME280;56865;51.618;7.406;2023-06-04T09:23:17;101442.22;;;34.25;32.65
44992;BME280;56865;51.618;7.406;2023-06-04T09:25:49;101451.50;;;34.90;34.64
44992;BME280;56865;51.618;7.406;2023-06-04T09:28:22;101458.31;;;34.94;35.34
44992;BME280;56865;51.618;7.406;2023-06-04T09:30:53;101458.72;;;34.88;37.05
44992;BME280;56865;51.618;7.406;2023-06-04T09:33:23;101453.84;;;34.80;37.85
44992;BME280;56865;51.618;7.406;2023-06-04T09:35:53;101453.59;;;34.56;33.84
44992;BME280;56865;51.618;7.406;2023-06-04T09:38:33;101454.34;;;34.44;31.73
44992;BME280;56865;51.618;7.406;2023-06-04T09:41:03;101456.81;;;34.90;33.24
44992;BME280;56865;51.618;7.406;2023-06-04T09:43:37;101446.94;;;35.07;34.35
44992;BME280;56865;51.618;7.406;2023-06-04T09:46:11;101453.66;;;35.12;34.45
44992;BME280;56865;51.618;7.406;2023-06-04T09:48:42;101464.88;;;34.89;33.07
44992;BME280;56865;51.618;7.406;2023-06-04T09:51:14;101459.38;;;34.48;30.61
44992;BME280;56865;51.618;7.406;2023-06-04T09:53:53;101453.75;;;35.11;34.57
44992;BME280;56865;51.618;7.406;2023-06-04T09:56:25;101452.94;;;34.67;31.40
44992;BME280;56865;51.618;7.406;2023-06-04T09:59:00;101460.03;;;34.66;32.38
44992;BME280;56865;51.618;7.406;2023-06-04T10:01:30;101455.31;;;34.57;29.91
44992;BME280;56865;51.618;7.406;2023-06-04T10:04:03;101459.84;;;34.98;33.43
44992;BME280;56865;51.618;7.406;2023-06-04T10:06:34;101461.97;;;35.48;31.66
44992;BME280;56865;51.618;7.406;2023-06-04T10:09:05;101450.91;;;35.14;31.32
44992;BME280;56865;51.618;7.406;2023-06-04T10:11:39;101448.56;;;35.64;32.32
44992;BME280;56865;51.618;7.406;2023-06-04T10:14:18;101451.13;;;35.11;29.01
44992;BME280;56865;51.618;7.406;2023-06-04T10:16:51;101447.47;;;35.54;33.89
44992;BME280;56865;51.618;7.406;2023-06-04T10:19:21;101450.47;;;34.93;30.45
44992;BME280;56865;51.618;7.406;2023-06-04T10:21:52;101447.03;;;35.47;32.64
44992;BME280;56865;51.618;7.406;2023-06-04T10:24:22;101443.38;;;34.93;31.50
44992;BME280;56865;51.618;7.406;2023-06-04T10:26:54;101448.22;;;35.28;33.34
44992;BME280;56865;51.618;7.406;2023-06-04T10:29:30;101449.75;;;35.18;30.88
44992;BME280;56865;51.618;7.406;2023-06-04T10:32:00;101449.72;;;35.33;31.50
44992;BME280;56865;51.618;7.406;2023-06-04T10:34:30;101443.06;;;34.98;29.73
44992;BME280;56865;51.618;7.406;2023-06-04T10:37:01;101446.81;;;35.23;29.51
44992;BME280;56865;51.618;7.406;2023-06-04T10:39:32;101438.28;;;34.90;29.16
44992;BME280;56865;51.618;7.406;2023-06-04T10:42:05;101440.84;;;35.19;30.51
44992;BME280;56865;51.618;7.406;2023-06-04T10:44:47;101438.50;;;35.82;31.83
44992;BME280;56865;51.618;7.406;2023-06-04T10:47:21;101438.06;;;35.62;32.30
44992;BME280;56865;51.618;7.406;2023-06-04T10:49:52;101435.31;;;35.77;31.83
44992;BME280;56865;51.618;7.406;2023-06-04T10:52:22;101429.13;;;35.63;31.18
44992;BME280;56865;51.618;7.406;2023-06-04T10:55:03;101437.41;;;36.12;32.73
44992;BME280;56865;51.618;7.406;2023-06-04T10:57:34;101430.69;;;35.93;31.44
44992;BME280;56865;51.618;7.406;2023-06-04T11:00:08;101431.25;;;36.37;29.99
44992;BME280;56865;51.618;7.406;2023-06-04T11:02:49;101438.06;;;35.62;30.73
44992;BME280;56865;51.618;7.406;2023-06-04T11:05:20;101441.03;;;35.71;28.83
44992;BME280;56865;51.618;7.406;2023-06-04T11:07:50;101436.91;;;35.79;28.01
44992;BME280;56865;51.618;7.406;2023-06-04T11:10:31;101431.97;;;36.01;28.20
44992;BME280;56865;51.618;7.406;2023-06-04T11:13:02;101435.81;;;36.22;29.58
44992;BME280;56865;51.618;7.406;2023-06-04T11:15:41;101427.31;;;36.17;29.73
44992;BME280;56865;51.618;7.406;2023-06-04T11:18:15;101424.28;;;35.83;27.33
44992;BME280;56865;51.618;7.406;2023-06-04T11:20:48;101428.72;;;35.70;27.24
44992;BME280;56865;51.618;7.406;2023-06-04T11:23:20;101425.94;;;35.58;27.01
44992;BME280;56865;51.618;7.406;2023-06-04T11:25:52;101412.94;;;35.41;26.83
44992;BME280;56865;51.618;7.406;2023-06-04T11:28:22;101415.53;;;35.95;28.28
44992;BME280;56865;51.618;7.406;2023-06-04T11:30:59;101424.16;;;35.72;27.67
44992;BME280;56865;51.618;7.406;2023-06-04T11:33:30;101415.13;;;35.61;27.38
44992;BME280;56865;51.618;7.406;2023-06-04T11:36:00;101419.38;;;35.64;27.62
44992;BME280;56865;51.618;7.406;2023-06-04T11:38:30;101419.84;;;36.35;28.78
44992;BME280;56865;51.618;7.406;2023-06-04T11:41:02;101425.72;;;36.27;26.73
44992;BME280;56865;51.618;7.406;2023-06-04T11:43:33;101422.63;;;35.95;25.50
44992;BME280;56865;51.618;7.406;2023-06-04T11:46:09;101422.09;;;35.90;26.14
44992;BME280;56865;51.618;7.406;2023-06-04T11:48:39;101414.03;;;36.17;25.37
44992;BME280;56865;51.618;7.406;2023-06-04T11:51:10;101416.00;;;36.65;28.46
44992;BME280;56865;51.618;7.406;2023-06-04T11:53:40;101417.22;;;36.22;25.23
44992;BME280;56865;51.618;7.406;2023-06-04T11:56:11;101417.72;;;36.66;28.48
44992;BME280;56865;51.618;7.406;2023-06-04T11:58:42;101417.78;;;36.40;26.22
44992;BME280;56865;51.618;7.406;2023-06-04T12:01:16;101409.91;;;36.13;26.26
44992;BME280;56865;51.618;7.406;2023-06-04T12:03:46;101413.19;;;36.92;29.32
44992;BME280;56865;51.618;7.406;2023-06-04T12:06:18;101400.06;;;37.27;30.55
44992;BME280;56865;51.618;7.406;2023-06-04T12:08:49;101405.28;;;37.04;30.38
44992;BME280;56865;51.618;7.406;2023-06-04T12:11:25;101404.22;;;36.56;27.60
44992;BME280;56865;51.618;7.406;2023-06-04T12:13:59;101409.06;;;36.75;29.65
44992;BME280;56865;51.618;7.406;2023-06-04T12:16:33;101401.53;;;36.82;29.40
44992;BME280;56865;51.618;7.406;2023-06-04T12:19:07;101405.84;;;36.33;27.59
44992;BME280;56865;51.618;7.406;2023-06-04T12:21:38;101398.59;;;36.35;25.73
44992;BME280;56865;51.618;7.406;2023-06-04T12:24:11;101403.09;;;36.48;25.63
44992;BME280;56865;51.618;7.406;2023-06-04T12:26:42;101400.06;;;36.78;27.92
44992;BME280;56865;51.618;7.406;2023-06-04T12:29:16;101396.47;;;36.66;26.16
44992;BME280;56865;51.618;7.406;2023-06-04T12:31:49;101392.53;;;37.45;28.67
44992;BME280;56865;51.618;7.406;2023-06-04T12:34:19;101395.53;;;36.54;26.41
44992;BME280;56865;51.618;7.406;2023-06-04T12:36:49;101389.63;;;37.12;27.95
44992;BME280;56865;51.618;7.406;2023-06-04T12:39:19;101404.72;;;37.12;25.38
44992;BME280;56865;51.618;7.406;2023-06-04T12:41:49;101391.94;;;37.41;26.71
44992;BME280;56865;51.618;7.406;2023-06-04T12:44:19;101395.22;;;36.96;25.57
44992;BME280;56865;51.618;7.406;2023-06-04T12:46:52;101394.94;;;37.12;26.79
44992;BME280;56865;51.618;7.406;2023-06-04T12:49:22;101403.06;;;36.98;24.61
44992;BME280;56865;51.618;7.406;2023-06-04T12:51:52;101389.41;;;37.51;27.63
44992;BME280;56865;51.618;7.406;2023-06-04T12:54:23;101395.09;;;37.22;24.45
44992;BME280;56865;51.618;7.406;2023-06-04T12:56:54;101397.91;;;37.32;24.76
44992;BME280;56865;51.618;7.406;2023-06-04T12:59:27;101392.00;;;37.64;25.71
44992;BME280;56865;51.618;7.406;2023-06-04T13:02:00;101394.91;;;37.72;25.61
44992;BME280;56865;51.618;7.406;2023-06-04T13:04:30;101392.72;;;37.66;25.65
44992;BME280;56865;51.618;7.406;2023-06-04T13:07:00;101396.63;;;37.73;26.34
44992;BME280;56865;51.618;7.406;2023-06-04T13:09:30;101392.56;;;37.92;25.64
44992;BME280;56865;51.618;7.406;2023-06-04T13:12:02;101391.34;;;37.96;26.06